Latest Weather Observations for Rhyll

IDV60901

Issued at 12:51 pm EDT Monday 18 October 2021 (issued every 10 minutes, with the page automatically refreshed every 10 minutes)

About weather observations | Map of Melbourne area stations | Latest observations for Melbourne area | Other Formats
Station Details ID: 086373 Name: RHYLL Lat: -38.46 Lon: 145.31 Height: 13.4 m
Data from the previous 72 hours. | See also: Recent months at Rhyll
Date/Time
EDT
Temp
°C
App
Temp
°C
Dew
Point
°C
Rel
Hum
%
Delta-T
°C
Wind Press
QNH
hPa
Press
MSL
hPa
Rain since
9am
mm
Dir  Spd
km/h
Gust
km/h
Spd
kts
Gust
kts
18/12:30pm 16.9 13.5 7.8 55 4.6 WSW 15 24 8 13 1012.9 1012.9 0.0
18/12:00pm 17.6 15.4 9.5 59 4.2 W 11 20 6 11 1013.1 1013.1 0.0
18/11:30am 16.6 14.8 9.3 62 3.8 W 9 19 5 10 1013.2 1013.2 0.0
18/11:00am 17.1 14.4 8.8 58 4.3 W 13 22 7 12 1013.0 1013.0 0.0
18/10:30am 16.5 14.7 9.4 63 3.7 W 9 15 5 8 1013.0 1013.0 0.0
18/10:00am 15.3 14.1 10.3 72 2.6 WNW 7 15 4 8 1013.1 1013.1 0.0
18/09:30am 15.5 14.2 9.8 69 3.0 W 7 13 4 7 1013.0 1013.0 0.0
18/09:00am 14.2 13.2 10.2 77 2.1 WNW 6 13 3 7 1013.0 1013.0 0.0
18/08:30am 13.3 12.8 9.5 78 1.9 NW 2 6 1 3 1012.7 1012.7 0.0
18/08:00am 12.7 12.2 9.2 79 1.8 WNW 2 6 1 3 1012.7 1012.7 0.0
18/07:30am 12.2 11.6 9.0 81 1.6 NW 2 6 1 3 1012.4 1012.4 0.0
18/07:00am 12.1 10.7 8.9 81 1.6 NNW 6 11 3 6 1012.0 1012.0 0.0
18/06:30am 12.3 10.3 8.6 78 1.8 N 9 13 5 7 1011.9 1011.9 0.0
18/06:00am 11.5 10.6 9.1 85 1.2 NNE 4 11 2 6 1011.7 1011.7 0.0
18/05:30am 10.9 10.4 9.5 91 0.7 NE 2 4 1 2 1011.6 1011.6 0.0
18/05:00am 9.9 9.5 8.2 89 0.8 CALM 0 0 0 0 1011.7 1011.7 0.0
18/04:30am 9.8 8.9 7.9 88 0.9 NE 2 4 1 2 1011.7 1011.7 0.0
18/04:00am 10.4 8.6 8.0 85 1.2 NE 7 9 4 5 1011.5 1011.5 0.0
18/03:30am 10.5 8.0 8.4 87 1.0 ENE 11 13 6 7 1011.8 1011.8 0.0
18/03:00am 10.2 7.5 7.4 83 1.3 ENE 11 13 6 7 1012.1 1012.1 0.0
18/02:30am 10.8 8.4 7.1 78 1.8 NE 9 11 5 6 1012.3 1012.3 0.0
18/02:00am 11.3 9.4 7.4 77 1.9 NE 7 9 4 5 1012.8 1012.8 0.0
18/01:30am 11.5 8.9 7.8 78 1.8 NE 11 13 6 7 1013.2 1013.2 0.0
18/01:00am 11.8 9.3 8.1 78 1.8 NE 11 13 6 7 1013.4 1013.4 0.0
18/12:30am 11.0 8.2 8.6 85 1.2 ENE 13 15 7 8 1013.4 1013.4 0.0
18/12:00am 11.6 9.9 9.9 89 0.9 ENE 9 11 5 6 1013.7 1013.7 0.0
 
Date/Time
EDT
Temp
°C
App
Temp
°C
Dew
Point
°C
Rel
Hum
%
Delta-T
°C
Wind Press
QNH
hPa
Press
MSL
hPa
Rain since
9am
mm
Dir  Spd
km/h
Gust
km/h
Spd
kts
Gust
kts
17/11:30pm 10.8 9.2 8.7 87 1.0 ENE 7 9 4 5 1013.9 1013.9 0.0
17/11:00pm 11.0 9.4 8.8 86 1.1 ENE 7 9 4 5 1013.9 1013.9 0.0
17/10:30pm 11.1 10.0 8.3 83 1.4 E 4 6 2 3 1014.1 1014.1 0.0
17/10:00pm 11.4 11.0 8.4 82 1.5 CALM 0 0 0 0 1014.2 1014.2 0.0
17/09:30pm 11.7 11.0 8.6 81 1.5 SSW 2 4 1 2 1014.1 1014.1 0.0
17/09:00pm 11.4 10.2 7.9 79 1.7 SSW 4 6 2 3 1014.0 1014.0 0.0
17/08:30pm 11.7 10.4 7.6 76 2.0 SW 4 6 2 3 1013.8 1013.8 0.0
17/08:00pm 11.7 10.2 6.6 71 2.4 SW 4 6 2 3 1013.5 1013.5 0.0
17/07:30pm 12.8 11.3 6.8 67 2.9 SW 4 7 2 4 1013.2 1013.2 0.0
17/07:00pm 14.2 12.1 6.6 60 3.7 SW 7 13 4 7 1012.8 1012.8 0.0
17/06:30pm 15.0 12.9 6.8 58 4.0 WSW 7 13 4 7 1012.7 1012.7 0.0
17/06:00pm 15.3 12.9 7.1 58 4.0 SW 9 15 5 8 1012.5 1012.5 0.0
17/05:30pm 14.8 12.4 6.9 59 3.9 WSW 9 13 5 7 1012.6 1012.6 0.0
17/05:00pm 15.0 13.3 8.3 64 3.4 WSW 7 13 4 7 1012.8 1012.8 0.0
17/04:30pm 15.6 13.6 6.9 56 4.3 WSW 7 15 4 8 1013.0 1013.0 0.0
17/04:00pm 15.1 13.2 7.6 61 3.7 WNW 7 17 4 9 1013.2 1013.2 0.0
17/03:30pm 15.3 13.1 7.8 61 3.7 WNW 9 19 5 10 1013.3 1013.3 0.0
17/03:00pm 15.0 12.4 7.8 62 3.6 NW 11 17 6 9 1013.5 1013.5 0.0
17/02:30pm 15.1 13.4 7.6 61 3.7 NW 6 17 3 9 1013.7 1013.7 0.0
17/02:00pm 14.2 11.4 7.0 62 3.5 W 11 24 6 13 1013.7 1013.7 0.0
17/01:30pm 14.8 13.3 8.3 65 3.3 WNW 6 9 3 5 1013.6 1013.6 0.0
17/01:00pm 13.6 11.3 7.4 66 3.0 WNW 9 20 5 11 1014.0 1014.0 0.0
17/12:30pm 14.2 11.5 7.3 63 3.4 WNW 11 19 6 10 1014.0 1014.0 0.0
17/12:00pm 14.7 12.0 7.5 62 3.6 WNW 11 20 6 11 1014.3 1014.3 0.0
17/11:30am 14.4 12.2 7.9 65 3.2 WNW 9 17 5 9 1014.4 1014.4 0.0
17/11:00am 14.2 12.1 8.4 68 2.9 NW 9 17 5 9 1014.4 1014.4 0.0
17/10:30am 13.6 11.9 8.2 70 2.7 WNW 7 17 4 9 1014.6 1014.6 0.0
17/10:00am 13.4 11.7 8.5 72 2.4 WNW 7 17 4 9 1014.6 1014.6 0.0
17/09:30am 13.0 11.5 9.1 77 2.0 WNW 7 13 4 7 1014.7 1014.7 0.0
17/09:00am 12.4 11.0 9.6 83 1.4 NNW 7 13 4 7 1014.6 1014.6 0.6
17/08:30am 11.8 9.4 8.8 82 1.5 NNW 11 15 6 8 1014.5 1014.5 0.6
17/08:00am 11.2 9.5 8.2 82 1.5 NW 7 13 4 7 1014.3 1014.3 0.6
17/07:30am 11.2 9.6 8.2 82 1.5 WNW 6 17 3 9 1013.9 1013.9 0.6
17/07:00am 11.1 9.5 8.7 85 1.2 WNW 7 13 4 7 1013.6 1013.6 0.6
17/06:30am 10.9 9.4 8.3 84 1.3 WNW 6 11 3 6 1013.4 1013.4 0.6
17/06:00am 11.0 9.4 8.9 87 1.0 WNW 7 15 4 8 1013.1 1013.1 0.6
17/05:30am 11.1 10.0 8.3 83 1.4 NW 4 7 2 4 1012.8 1012.8 0.6
17/05:00am 10.5 8.8 7.4 81 1.5 WNW 6 7 3 4 1012.7 1012.7 0.6
17/04:30am 10.4 9.0 7.3 81 1.5 WNW 4 7 2 4 1012.6 1012.6 0.6
17/04:00am 11.1 9.2 7.4 78 1.8 W 7 13 4 7 1012.7 1012.7 0.6
17/03:30am 10.8 9.1 7.7 81 1.5 W 6 11 3 6 1012.7 1012.7 0.4
17/03:00am 11.2 9.1 6.5 73 2.2 WSW 7 13 4 7 1012.6 1012.6 0.4
17/02:30am 11.1 9.2 7.6 79 1.7 WSW 7 11 4 6 1012.8 1012.8 0.4
17/02:00am 11.1 8.4 7.4 78 1.8 WSW 11 22 6 12 1012.8 1012.8 0.4
17/01:30am 11.1 8.9 7.8 80 1.6 WSW 9 19 5 10 1013.0 1013.0 0.4
17/01:00am 11.3 9.2 8.3 82 1.5 WSW 9 17 5 9 1013.1 1013.1 0.4
17/12:30am 11.1 9.0 8.3 83 1.4 WSW 9 17 5 9 1013.1 1013.1 0.4
17/12:00am 11.2 8.5 8.8 85 1.2 SW 13 24 7 13 1013.1 1013.1 0.4
 
Date/Time
EDT
Temp
°C
App
Temp
°C
Dew
Point
°C
Rel
Hum
%
Delta-T
°C
Wind Press
QNH
hPa
Press
MSL
hPa
Rain since
9am
mm
Dir  Spd
km/h
Gust
km/h
Spd
kts
Gust
kts
16/11:30pm 11.3 9.2 8.3 82 1.5 WSW 9 15 5 8 1013.0 1013.0 0.4
16/11:00pm 11.3 8.8 8.3 82 1.5 WSW 11 20 6 11 1013.2 1013.2 0.4
16/10:30pm 11.1 8.2 8.3 83 1.4 WSW 13 24 7 13 1013.3 1013.3 0.4
16/10:00pm 11.1 8.2 8.3 83 1.4 WSW 13 32 7 17 1013.2 1013.2 0.4
16/09:30pm 11.4 8.4 7.9 79 1.7 WSW 13 22 7 12 1012.9 1012.9 0.2
16/09:00pm 11.3 8.2 8.7 84 1.3 WSW 15 26 8 14 1012.5 1012.5 0.2
16/08:30pm 11.6 8.2 7.7 77 1.9 WSW 15 24 8 13 1012.1 1012.1 0.2
16/08:00pm 11.8 8.7 7.3 74 2.2 WSW 13 24 7 13 1011.8 1011.8 0.2
16/07:30pm 11.9 8.1 7.6 75 2.1 WSW 17 30 9 16 1011.5 1011.5 0.2
16/07:00pm 12.4 8.7 8.1 75 2.1 WSW 17 30 9 16 1011.1 1011.1 0.2
16/06:30pm 12.5 9.3 8.4 76 2.0 WSW 15 28 8 15 1010.8 1010.8 0.2
16/06:00pm 12.7 8.7 8.4 75 2.1 WSW 19 35 10 19 1010.4 1010.4 0.2
16/05:30pm 11.8 7.8 9.2 84 1.3 WSW 20 39 11 21 1010.3 1010.3 0.2
16/05:00pm 12.6 8.7 8.5 76 2.0 WSW 19 35 10 19 1010.0 1010.0 0.2
16/04:30pm 12.9 9.3 8.4 74 2.2 WSW 17 35 9 19 1010.0 1010.0 0.2
16/04:00pm 13.0 8.5 8.7 75 2.2 WSW 22 41 12 22 1009.8 1009.8 0.2
16/03:30pm 12.4 8.3 8.5 77 1.9 WSW 20 37 11 20 1009.9 1009.9 0.0
16/03:00pm 13.3 9.6 9.4 77 2.0 WSW 19 39 10 21 1009.7 1009.7 0.0
16/02:30pm 13.7 9.6 8.7 72 2.5 WSW 20 37 11 20 1009.6 1009.6 0.0
16/02:00pm 13.8 9.4 8.8 72 2.5 WSW 22 39 12 21 1009.5 1009.5 0.0
16/01:30pm 13.5 8.4 7.7 68 2.9 SW 24 41 13 22 1009.5 1009.5 0.0
16/01:00pm 13.4 8.6 7.2 66 3.0 WSW 22 35 12 19 1009.5 1009.5 0.0
16/12:30pm 13.4 9.0 7.2 66 3.0 SW 20 37 11 20 1009.3 1009.3 0.0
16/12:00pm 13.4 9.1 7.8 69 2.8 SW 20 39 11 21 1009.3 1009.3 0.0
16/11:30am 13.2 8.6 8.1 71 2.5 WSW 22 41 12 22 1009.2 1009.2 0.0
16/11:00am 13.5 8.4 7.5 67 2.9 SW 24 43 13 23 1008.8 1008.8 0.0
16/10:34am 13.5 7.6 7.7 68 2.9 SW 28 46 15 25 1008.4 1008.4 0.0
16/10:30am 13.3 6.6 7.3 67 2.9 SW 32 48 17 26 1008.2 1008.2 0.0
16/10:00am 13.2 6.9 7.4 68 2.8 SW 30 50 16 27 1008.0 1008.0 0.0
16/09:30am 13.1 7.5 8.8 75 2.2 SW 28 48 15 26 1007.5 1007.5 0.0
16/09:00am 13.1 6.6 8.2 72 2.4 SW 32 56 17 30 1007.2 1007.2 27.2
16/08:30am 12.5 6.4 8.4 76 2.0 SW 30 52 16 28 1006.6 1006.6 27.2
16/08:00am 11.9 6.4 9.1 83 1.4 SW 28 50 15 27 1006.3 1006.3 27.2
16/07:30am 11.9 6.3 8.7 81 1.6 SW 28 46 15 25 1005.6 1005.6 27.2
16/07:07am 11.8 5.9 9.2 84 1.3 SW 30 50 16 27 1005.0 1005.0 27.2
16/07:00am 11.5 5.6 8.9 84 1.3 SW 30 46 16 25 1004.9 1004.9 27.2
16/06:30am 12.1 5.4 8.2 77 1.9 SW 33 54 18 29 1004.1 1004.1 27.2
16/06:00am 12.1 5.4 8.0 76 2.0 SW 33 54 18 29 1003.7 1003.7 27.2
16/05:30am 12.3 6.4 9.1 81 1.6 SW 30 50 16 27 1003.3 1003.3 27.2
16/05:07am 12.3 6.4 9.1 81 1.6 SW 30 50 16 27 1002.8 1002.8 27.2
16/05:00am 12.4 6.2 9.4 82 1.5 SW 32 46 17 25 1002.9 1002.9 27.2
16/04:30am 12.0 5.1 9.0 82 1.5 SW 35 65 19 35 1002.5 1002.5 27.2
16/04:00am 11.8 5.8 10.9 94 0.5 SW 33 54 18 29 1002.0 1002.0 27.2
16/03:40am 12.3 6.8 10.7 90 0.8 SW 30 52 16 28 1001.8 1001.8 26.0
16/03:30am 12.3 6.8 10.7 90 0.8 SW 30 46 16 25 1001.7 1001.7 26.0
16/03:00am 12.3 6.6 11.0 92 0.7 SW 32 54 17 29 1001.1 1001.1 25.8
16/02:30am 12.7 7.4 11.4 92 0.7 SW 30 57 16 31 1000.7 1000.7 25.2
16/02:07am 13.2 7.6 11.4 89 1.0 SW 32 52 17 28 1000.5 1000.5 25.2
16/02:00am 13.2 7.9 11.4 89 1.0 SW 30 46 16 25 1000.6 1000.6 25.2
16/01:30am 13.2 7.4 11.4 89 1.0 SW 33 54 18 29 1000.1 1000.1 25.2
16/01:05am 13.1 7.9 11.7 91 0.7 SW 30 50 16 27 999.9 999.9 25.2
16/01:00am 13.1 7.5 11.5 90 0.9 SW 32 48 17 26 999.8 999.8 25.2
16/12:30am 13.1 8.3 11.7 91 0.7 SW 28 41 15 22 999.6 999.6 25.2
16/12:11am 12.9 7.3 11.6 92 0.7 SW 32 52 17 28 999.2 999.2 25.2
16/12:00am 12.9 8.5 11.8 93 0.6 SW 26 46 14 25 999.0 999.0 25.2
 
Date/Time
EDT
Temp
°C
App
Temp
°C
Dew
Point
°C
Rel
Hum
%
Delta-T
°C
Wind Press
QNH
hPa
Press
MSL
hPa
Rain since
9am
mm
Dir  Spd
km/h
Gust
km/h
Spd
kts
Gust
kts
15/11:50pm 12.9 8.1 11.8 93 0.6 WSW 28 50 15 27 998.9 998.9 25.2
15/11:30pm 12.8 9.2 11.9 94 0.5 WSW 22 37 12 20 999.0 999.0 25.2
15/11:00pm 12.8 9.5 11.5 92 0.7 WSW 20 37 11 20 999.1 999.1 25.0
15/10:30pm 12.9 9.6 11.6 92 0.7 WSW 20 33 11 18 999.2 999.2 25.0
15/10:00pm 13.0 9.8 11.9 93 0.6 WSW 20 33 11 18 999.0 999.0 25.0
15/09:30pm 12.9 9.4 12.1 95 0.4 WSW 22 35 12 19 999.0 999.0 25.0
15/09:00pm 12.5 8.9 11.9 96 0.3 WSW 22 37 12 20 998.8 998.8 25.0
15/08:30pm 11.7 7.9 11.1 96 0.3 W 22 41 12 22 998.7 998.7 23.8
15/08:00pm 11.1 8.8 10.3 95 0.4 WNW 13 24 7 13 998.6 998.6 20.8
15/07:30pm 11.2 8.9 10.3 94 0.5 WNW 13 24 7 13 998.9 998.9 17.0
15/07:00pm 11.0 7.8 9.8 92 0.6 WNW 17 28 9 15 999.0 999.0 14.6
15/06:30pm 11.0 8.2 9.9 93 0.6 WNW 15 24 8 13 999.1 999.1 12.2
15/06:00pm 11.1 7.9 9.9 92 0.6 WNW 17 32 9 17 999.2 999.2 10.8
15/05:30pm 11.0 8.6 9.9 93 0.6 W 13 28 7 15 999.3 999.3 9.0
15/05:00pm 11.1 8.3 9.9 92 0.6 W 15 26 8 14 999.4 999.4 7.8
15/04:30pm 11.5 9.1 9.9 90 0.8 W 13 32 7 17 999.3 999.3 5.4
15/04:00pm 11.5 9.2 10.4 93 0.6 NW 13 28 7 15 999.4 999.4 4.4
15/03:30pm 11.7 9.8 10.4 92 0.7 WNW 11 20 6 11 999.8 999.8 3.0
15/03:00pm 11.8 9.8 10.2 90 0.8 WNW 11 24 6 13 1000.1 1000.1 1.6
15/02:30pm 11.8 8.3 8.8 82 1.5 WNW 17 32 9 17 1000.5 1000.5 0.8
15/02:00pm 13.2 10.1 8.7 74 2.3 W 15 30 8 16 1000.7 1000.7 0.0
15/01:30pm 13.7 9.6 7.9 68 2.9 W 19 32 10 17 1000.8 1000.8 0.0
15/01:00pm 14.7 10.9 7.5 62 3.6 WNW 17 30 9 16 1001.0 1001.0 0.0

Latest Capital City Observations: Canberra | Sydney | Melbourne | Brisbane | Adelaide | Perth | Hobart | Darwin

Other formats

Comma delimited format used in spreadsheet applications
http://www.bom.gov.au/fwo/IDV60901/IDV60901.94892.axf

JavaScript Object Notation format (JSON) in row-major order
http://www.bom.gov.au/fwo/IDV60901/IDV60901.94892.json

Data quality

Most of these data are generated automatically and are frequently updated. Quality checks on data are not normally performed. It is possible for incorrect values to appear. Refer to information at About Latest Weather Observations and please check the disclaimer before using these data.